Time;durP1;ratioP1;P1;durP2;ratioP2;P2;SDS_P1;SDS_P2;PMS_P1;PMS_P2;Temp;Humidity;BMP_temperature;BMP_pressure;BME280_temperature;BME280_humidity;BME280_pressure;Samples;Min_cycle;Max_cycle;Signal;HPM_P1;HPM_P2
2022/02/26 00:01:46;;;;;;;1.20;0.40;;;24.80;99.90;;;;;;5027773;28;20048;-76
2022/02/26 00:04:13;;;;;;;1.17;0.30;;;24.80;99.90;;;;;;5025973;28;20025;-74
2022/02/26 00:06:40;;;;;;;0.22;0.13;;;24.80;99.90;;;;;;5030905;28;20376;-75
2022/02/26 00:09:11;;;;;;;4.00;0.38;;;24.90;99.90;;;;;;5032450;28;20128;-74
2022/02/26 00:11:39;;;;;;;1.08;0.25;;;24.80;99.90;;;;;;5023963;28;20456;-76
2022/02/26 00:14:06;;;;;;;3.03;0.60;;;24.80;99.90;;;;;;5032499;28;20026;-74
2022/02/26 00:16:34;;;;;;;1.80;0.20;;;24.90;99.90;;;;;;5028344;28;20389;-73
2022/02/26 00:19:01;;;;;;;0.45;0.30;;;25.00;99.90;;;;;;5025465;28;20091;-73
2022/02/26 00:21:29;;;;;;;1.80;0.40;;;24.90;99.90;;;;;;5030177;28;20032;-74
2022/02/26 00:23:57;;;;;;;2.05;0.30;;;24.90;99.90;;;;;;5032474;28;20036;-74
2022/02/26 00:26:24;;;;;;;0.47;0.13;;;24.80;99.90;;;;;;5032447;28;22320;-76
2022/02/26 00:28:52;;;;;;;2.90;0.65;;;24.70;99.90;;;;;;5031834;28;20061;-76
2022/02/26 00:31:19;;;;;;;1.02;0.40;;;24.50;99.90;;;;;;5031871;28;20041;-76
2022/02/26 00:33:47;;;;;;;1.02;0.32;;;24.40;99.90;;;;;;5021385;28;20021;-76
2022/02/26 00:36:15;;;;;;;2.53;0.65;;;24.20;99.90;;;;;;5024623;28;20103;-74
2022/02/26 00:38:42;;;;;;;1.27;0.30;;;23.90;99.90;;;;;;5018942;28;20022;-74
2022/02/26 00:41:10;;;;;;;3.35;0.55;;;23.70;99.90;;;;;;5024325;28;20124;-74
2022/02/26 00:43:37;;;;;;;0.60;0.30;;;23.60;99.90;;;;;;5025729;28;20040;-76
2022/02/26 00:46:07;;;;;;;0.65;0.35;;;23.60;99.90;;;;;;5025482;28;20057;-74
2022/02/26 00:51:24;;;;;;;1.35;0.30;;;23.60;99.90;;;;;;5031106;28;20122;-77
2022/02/26 00:53:51;;;;;;;2.50;0.20;;;23.60;99.90;;;;;;5021855;28;20120;-75
2022/02/26 00:56:18;;;;;;;1.55;0.45;;;23.60;99.90;;;;;;5024191;28;20040;-74
2022/02/26 00:58:46;;;;;;;1.58;0.30;;;23.80;99.90;;;;;;5029477;28;20052;-77
2022/02/26 01:01:13;;;;;;;1.92;0.45;;;23.90;99.90;;;;;;5028374;28;20083;-76
2022/02/26 01:03:40;;;;;;;0.88;0.30;;;24.00;99.90;;;;;;5029733;28;20486;-75
2022/02/26 01:06:08;;;;;;;1.13;0.40;;;24.20;99.90;;;;;;5026608;28;20029;-75
2022/02/26 01:08:35;;;;;;;2.00;0.28;;;24.30;99.90;;;;;;5026524;28;20098;-75
2022/02/26 01:11:02;;;;;;;1.02;0.30;;;24.30;99.90;;;;;;5022828;28;20030;-74
2022/02/26 01:13:30;;;;;;;2.42;0.47;;;24.30;99.90;;;;;;5023763;28;20037;-72
2022/02/26 01:15:57;;;;;;;0.65;0.22;;;24.10;99.90;;;;;;5021998;28;20456;-73
2022/02/26 01:18:24;;;;;;;5.25;1.17;;;23.90;99.90;;;;;;5028381;28;20026;-73
2022/02/26 01:20:52;;;;;;;2.92;0.52;;;24.00;99.90;;;;;;5026455;28;20049;-74
2022/02/26 01:23:19;;;;;;;1.85;0.88;;;24.00;99.90;;;;;;5028339;28;20079;-73
2022/02/26 01:25:47;;;;;;;3.10;0.50;;;23.90;99.90;;;;;;5016237;28;20192;-74
2022/02/26 01:28:14;;;;;;;1.67;0.28;;;23.90;99.90;;;;;;5029035;28;20042;-73
2022/02/26 01:30:41;;;;;;;2.00;0.30;;;24.00;99.90;;;;;;5028500;28;20644;-72
2022/02/26 01:33:08;;;;;;;0.90;0.40;;;24.30;99.90;;;;;;5011235;28;20026;-72
2022/02/26 01:35:36;;;;;;;3.03;0.60;;;24.60;99.90;;;;;;5012378;28;20084;-72
2022/02/26 01:38:03;;;;;;;1.20;0.30;;;24.80;99.90;;;;;;5019000;28;20040;-74
2022/02/26 01:40:31;;;;;;;0.52;0.20;;;24.80;99.90;;;;;;5026762;28;20376;-72
2022/02/26 01:42:58;;;;;;;2.33;0.38;;;24.70;99.90;;;;;;5026281;28;20036;-73
2022/02/26 01:45:26;;;;;;;0.73;0.30;;;24.60;99.90;;;;;;5027199;28;20113;-71
2022/02/26 01:47:54;;;;;;;1.48;0.30;;;24.50;99.90;;;;;;5024564;28;20025;-73
2022/02/26 01:50:22;;;;;;;1.75;0.20;;;24.30;99.90;;;;;;5025326;28;20034;-72
2022/02/26 01:52:50;;;;;;;1.85;0.68;;;24.30;99.90;;;;;;5021986;28;20160;-72
2022/02/26 01:55:17;;;;;;;1.95;0.45;;;24.20;99.90;;;;;;5025515;28;20033;-72
2022/02/26 01:57:45;;;;;;;0.80;0.40;;;24.10;99.90;;;;;;5017361;28;20330;-73
2022/02/26 02:00:13;;;;;;;1.45;0.40;;;24.00;99.90;;;;;;5019060;28;20018;-74
2022/02/26 02:02:41;;;;;;;0.75;0.32;;;23.80;99.90;;;;;;5024222;28;20045;-72
2022/02/26 02:05:08;;;;;;;0.52;0.20;;;23.90;99.90;;;;;;5021591;28;20018;-73
2022/02/26 02:07:36;;;;;;;1.00;0.45;;;23.90;99.90;;;;;;5025988;28;20420;-72
2022/02/26 02:10:05;;;;;;;1.42;0.50;;;23.80;99.90;;;;;;5028338;28;20503;-72
2022/02/26 02:12:33;;;;;;;3.28;0.55;;;23.90;99.90;;;;;;5024297;28;20471;-73
2022/02/26 02:15:00;;;;;;;1.65;0.40;;;24.00;99.90;;;;;;5017144;28;20433;-73
2022/02/26 02:17:28;;;;;;;3.40;0.30;;;24.00;99.90;;;;;;5015914;28;20151;-74
2022/02/26 02:19:55;;;;;;;1.90;0.50;;;24.00;99.90;;;;;;5027354;28;20025;-73
2022/02/26 02:22:23;;;;;;;0.63;0.30;;;23.80;99.90;;;;;;5021104;28;20044;-72
2022/02/26 02:24:50;;;;;;;2.17;0.30;;;23.80;99.90;;;;;;5028307;28;20495;-73
2022/02/26 02:27:18;;;;;;;0.70;0.40;;;23.70;99.90;;;;;;5017613;28;20508;-73
2022/02/26 02:29:46;;;;;;;0.90;0.77;;;23.60;99.90;;;;;;5024153;28;20831;-73
2022/02/26 02:32:13;;;;;;;2.40;0.60;;;23.60;99.90;;;;;;5021793;28;20119;-72
2022/02/26 02:34:41;;;;;;;1.65;0.40;;;23.70;99.90;;;;;;5029283;28;20072;-72
2022/02/26 02:37:10;;;;;;;2.13;0.57;;;23.80;99.90;;;;;;5022508;28;20040;-72
2022/02/26 02:39:38;;;;;;;2.67;0.30;;;24.00;99.90;;;;;;5019877;28;20033;-74
2022/02/26 02:42:06;;;;;;;0.80;0.43;;;24.10;99.90;;;;;;5025187;28;20476;-72
2022/02/26 02:44:34;;;;;;;1.63;0.30;;;24.20;99.90;;;;;;5032965;28;20949;-72
2022/02/26 02:47:01;;;;;;;2.00;0.45;;;24.20;99.90;;;;;;5024562;28;20037;-73
2022/02/26 02:49:29;;;;;;;2.35;0.32;;;24.20;99.90;;;;;;5030629;28;20029;-72
2022/02/26 02:51:56;;;;;;;2.35;0.20;;;24.20;99.90;;;;;;5023712;28;20059;-73
2022/02/26 02:54:24;;;;;;;1.65;0.30;;;24.30;99.90;;;;;;5030325;28;20032;-73
2022/02/26 02:56:51;;;;;;;2.00;0.63;;;24.30;99.90;;;;;;5028923;28;20108;-72
2022/02/26 02:59:18;;;;;;;1.85;0.80;;;24.20;99.90;;;;;;5031766;28;20068;-74
2022/02/26 03:01:46;;;;;;;0.47;0.10;;;24.10;99.90;;;;;;5028323;28;20022;-71
2022/02/26 03:04:13;;;;;;;1.38;0.20;;;23.90;99.90;;;;;;5016955;28;20098;-73
2022/02/26 03:06:41;;;;;;;3.08;0.10;;;23.70;99.90;;;;;;5018466;28;20060;-71
2022/02/26 03:09:08;;;;;;;0.57;0.30;;;23.60;99.90;;;;;;5016966;28;20515;-72
2022/02/26 03:11:36;;;;;;;0.70;0.22;;;23.60;99.90;;;;;;5031361;28;20056;-72
2022/02/26 03:14:03;;;;;;;0.63;0.20;;;23.70;99.90;;;;;;5025789;28;20026;-73
2022/02/26 03:16:30;;;;;;;1.55;0.20;;;23.80;99.90;;;;;;5028846;28;20392;-72
2022/02/26 03:18:58;;;;;;;2.38;0.40;;;24.00;99.90;;;;;;5023549;28;20033;-77
2022/02/26 03:21:25;;;;;;;0.82;0.35;;;24.20;99.90;;;;;;5027058;28;20025;-75
2022/02/26 03:23:52;;;;;;;0.47;0.35;;;24.30;99.90;;;;;;5025608;28;20487;-76
2022/02/26 03:26:20;;;;;;;0.73;0.15;;;24.30;99.90;;;;;;5033523;28;20463;-77
2022/02/26 03:28:47;;;;;;;0.82;0.50;;;24.50;99.90;;;;;;5030052;28;20068;-72
2022/02/26 03:31:14;;;;;;;0.35;0.10;;;24.50;99.90;;;;;;5020381;28;20061;-72
2022/02/26 03:33:42;;;;;;;1.20;0.70;;;24.50;99.90;;;;;;5032176;28;20516;-71
2022/02/26 03:36:09;;;;;;;1.92;0.70;;;24.60;99.90;;;;;;5021877;28;20362;-71
2022/02/26 03:38:38;;;;;;;1.17;0.60;;;24.60;99.90;;;;;;5021777;28;20404;-72
2022/02/26 03:41:07;;;;;;;1.40;0.30;;;24.50;99.90;;;;;;5018932;28;20045;-72
2022/02/26 03:43:35;;;;;;;0.65;0.28;;;24.50;99.90;;;;;;5028391;28;20074;-76
2022/02/26 03:46:02;;;;;;;1.65;0.30;;;24.50;99.90;;;;;;5024893;28;20435;-73
2022/02/26 03:48:29;;;;;;;1.08;0.50;;;24.40;99.90;;;;;;5024097;28;20028;-73
2022/02/26 03:51:03;;;;;;;0.77;0.32;;;24.50;99.90;;;;;;5020508;28;20041;-73
2022/02/26 03:53:32;;;;;;;1.17;0.40;;;24.50;99.90;;;;;;5016990;28;20018;-72
2022/02/26 03:56:00;;;;;;;1.50;0.40;;;24.30;99.90;;;;;;5013172;28;20633;-74
2022/02/26 03:58:27;;;;;;;2.38;0.60;;;24.30;99.90;;;;;;5027794;28;20051;-73
2022/02/26 04:00:55;;;;;;;0.80;0.30;;;24.10;99.90;;;;;;5027666;28;20082;-72
2022/02/26 04:03:22;;;;;;;2.80;0.63;;;24.00;99.90;;;;;;5022672;28;20041;-72
2022/02/26 04:05:49;;;;;;;2.08;0.40;;;24.10;99.90;;;;;;5030596;28;20075;-74
2022/02/26 04:08:17;;;;;;;2.40;0.70;;;24.10;99.90;;;;;;5028990;28;20025;-72
2022/02/26 04:10:44;;;;;;;2.45;0.63;;;24.00;99.90;;;;;;5028783;28;20135;-73
2022/02/26 04:13:12;;;;;;;0.73;0.30;;;23.90;99.90;;;;;;5030935;28;20057;-72
2022/02/26 04:15:39;;;;;;;2.03;0.50;;;23.90;99.90;;;;;;5030130;28;20055;-72
2022/02/26 04:18:06;;;;;;;1.40;0.40;;;23.90;99.90;;;;;;5029000;28;20088;-73
2022/02/26 04:20:34;;;;;;;1.92;0.47;;;24.00;99.90;;;;;;5023471;28;20032;-75
2022/02/26 04:23:02;;;;;;;2.03;0.60;;;24.10;99.90;;;;;;5026493;28;20033;-74
2022/02/26 04:25:29;;;;;;;1.00;0.70;;;24.10;99.90;;;;;;5024334;28;20538;-76
2022/02/26 04:27:56;;;;;;;3.17;0.68;;;24.10;99.90;;;;;;5029104;28;20538;-75
2022/02/26 04:30:24;;;;;;;3.08;1.63;;;24.10;99.90;;;;;;5020177;28;22179;-74
2022/02/26 04:32:51;;;;;;;1.95;1.02;;;24.00;99.90;;;;;;5019183;28;20048;-73
2022/02/26 04:35:18;;;;;;;6.22;1.50;;;23.90;99.90;;;;;;5019393;28;20109;-72
2022/02/26 04:37:46;;;;;;;2.72;0.70;;;23.80;99.90;;;;;;5027283;28;20091;-75
2022/02/26 04:40:15;;;;;;;2.08;1.15;;;23.60;99.90;;;;;;5032449;28;20029;-76
2022/02/26 04:42:43;;;;;;;4.15;1.23;;;23.50;99.90;;;;;;5029089;28;20037;-73
2022/02/26 04:45:14;;;;;;;4.75;0.73;;;23.40;99.90;;;;;;5029302;28;20033;-74
2022/02/26 04:47:43;;;;;;;1.38;0.20;;;23.20;99.90;;;;;;5023849;28;20025;-73
2022/02/26 04:50:13;;;;;;;1.70;1.00;;;23.10;99.90;;;;;;5031525;28;20052;-74
2022/02/26 04:52:41;;;;;;;2.05;0.40;;;23.10;99.90;;;;;;5022573;28;20033;-73
2022/02/26 04:55:10;;;;;;;0.68;0.20;;;23.10;99.90;;;;;;5018025;28;20075;-74
2022/02/26 04:57:37;;;;;;;0.88;0.28;;;23.00;99.90;;;;;;5030848;28;20029;-74
2022/02/26 05:00:07;;;;;;;2.72;0.40;;;23.10;99.90;;;;;;5031729;28;20511;-75
2022/02/26 05:02:34;;;;;;;1.90;0.40;;;23.10;99.90;;;;;;5030763;28;20068;-74
2022/02/26 05:05:01;;;;;;;1.35;0.32;;;23.00;99.90;;;;;;5012746;28;20032;-73
2022/02/26 05:07:29;;;;;;;2.60;0.50;;;23.10;99.90;;;;;;5023540;28;20025;-73
2022/02/26 05:09:56;;;;;;;1.35;0.40;;;23.10;99.90;;;;;;5029971;28;20022;-71
2022/02/26 05:12:23;;;;;;;0.63;0.30;;;23.00;99.90;;;;;;5029113;28;20037;-72
2022/02/26 05:14:51;;;;;;;3.13;0.68;;;22.90;99.90;;;;;;5031086;28;20037;-71
2022/02/26 05:17:18;;;;;;;1.23;0.40;;;22.90;99.90;;;;;;5028125;28;20478;-73
2022/02/26 05:19:46;;;;;;;2.28;0.40;;;22.90;99.90;;;;;;5030070;28;20113;-72
2022/02/26 05:22:13;;;;;;;0.88;0.50;;;22.90;99.90;;;;;;5028944;28;20056;-73
2022/02/26 05:24:41;;;;;;;2.47;0.95;;;22.70;99.90;;;;;;5029309;28;20052;-76
2022/02/26 05:27:09;;;;;;;0.85;0.40;;;22.80;99.90;;;;;;5028350;28;20025;-74
2022/02/26 05:29:36;;;;;;;0.88;0.20;;;22.90;99.90;;;;;;5027249;28;20079;-80
2022/02/26 05:32:04;;;;;;;0.70;0.40;;;22.90;99.90;;;;;;5031920;28;20033;-76
2022/02/26 05:34:31;;;;;;;0.65;0.22;;;23.00;99.90;;;;;;5014969;28;20022;-78
2022/02/26 05:36:58;;;;;;;2.50;0.40;;;23.20;99.90;;;;;;5025962;28;20091;-78
2022/02/26 05:39:26;;;;;;;0.30;0.17;;;23.10;99.90;;;;;;5031888;28;20033;-76
2022/02/26 05:41:53;;;;;;;0.70;0.20;;;23.10;99.90;;;;;;5031900;28;20052;-73
2022/02/26 05:44:24;;;;;;;5.38;0.28;;;23.00;99.90;;;;;;5025209;28;20747;-75
2022/02/26 05:46:52;;;;;;;0.30;0.20;;;22.90;99.90;;;;;;5027851;28;20440;-71
2022/02/26 05:49:20;;;;;;;1.60;0.10;;;22.80;99.90;;;;;;5032688;28;20555;-72
2022/02/26 05:51:47;;;;;;;0.88;0.28;;;22.60;99.90;;;;;;5033977;28;20034;-71
2022/02/26 05:54:15;;;;;;;2.40;0.50;;;22.40;99.90;;;;;;5032611;28;20021;-72
2022/02/26 05:56:42;;;;;;;0.25;0.10;;;22.30;99.90;;;;;;5021775;28;20105;-76
2022/02/26 05:59:12;;;;;;;0.95;0.30;;;22.30;99.90;;;;;;5032955;28;20468;-77
2022/02/26 06:01:41;;;;;;;0.63;0.20;;;22.40;99.90;;;;;;5028784;28;20052;-75
2022/02/26 06:04:08;;;;;;;0.57;0.32;;;22.50;99.90;;;;;;5032575;28;20499;-77
2022/02/26 06:06:36;;;;;;;2.53;0.30;;;22.50;99.90;;;;;;5031680;28;20048;-76
2022/02/26 06:09:04;;;;;;;0.60;0.20;;;22.50;99.90;;;;;;5029330;28;20034;-78
2022/02/26 06:11:31;;;;;;;0.43;0.20;;;22.50;99.90;;;;;;5031199;28;20084;-76
2022/02/26 06:13:58;;;;;;;1.73;0.30;;;22.40;99.90;;;;;;5018011;28;20029;-77
2022/02/26 06:16:26;;;;;;;4.95;0.50;;;22.60;99.90;;;;;;5028544;28;20025;-76
2022/02/26 06:18:53;;;;;;;2.22;0.95;;;22.60;99.90;;;;;;5032387;28;20060;-78
2022/02/26 06:21:20;;;;;;;1.25;0.50;;;22.70;99.90;;;;;;5028598;28;20022;-79
2022/02/26 06:23:49;;;;;;;2.80;0.55;;;22.70;99.90;;;;;;5032712;28;20490;-78
2022/02/26 06:26:16;;;;;;;3.00;0.75;;;22.80;99.90;;;;;;5031604;28;20025;-76
2022/02/26 06:28:44;;;;;;;0.82;0.43;;;22.80;99.90;;;;;;5033665;28;20077;-76
2022/02/26 06:31:11;;;;;;;1.67;0.77;;;22.90;99.90;;;;;;5028764;28;20037;-75
2022/02/26 06:33:38;;;;;;;1.48;0.50;;;22.90;99.90;;;;;;5030256;28;20108;-75
2022/02/26 06:36:06;;;;;;;2.40;0.40;;;23.00;99.90;;;;;;5017960;28;20064;-75
2022/02/26 06:38:33;;;;;;;3.08;0.35;;;23.00;99.90;;;;;;5030988;28;20029;-76
2022/02/26 06:41:01;;;;;;;4.05;0.63;;;23.20;99.90;;;;;;5029759;28;20029;-76
2022/02/26 06:43:28;;;;;;;4.82;2.05;;;23.30;99.90;;;;;;5029491;28;20076;-77
2022/02/26 06:45:55;;;;;;;0.93;0.52;;;23.30;99.90;;;;;;5030749;28;20039;-75
2022/02/26 06:48:23;;;;;;;9.27;4.80;;;23.20;99.90;;;;;;5030734;28;20024;-79
2022/02/26 06:50:50;;;;;;;4.32;2.15;;;23.10;99.90;;;;;;5032203;28;20064;-73
2022/02/26 06:53:17;;;;;;;3.95;2.00;;;23.10;99.90;;;;;;5031858;28;20032;-75
2022/02/26 06:55:45;;;;;;;4.55;1.40;;;23.20;99.90;;;;;;5027149;28;20030;-75
2022/02/26 06:58:12;;;;;;;2.58;0.63;;;23.30;99.90;;;;;;5034435;28;20030;-79
2022/02/26 07:00:39;;;;;;;3.60;1.20;;;23.30;99.90;;;;;;5035143;28;20068;-76
2022/02/26 07:03:07;;;;;;;2.17;0.95;;;23.40;99.90;;;;;;5032431;28;20032;-76
2022/02/26 07:05:34;;;;;;;7.03;1.33;;;23.50;99.90;;;;;;5027879;28;20034;-74
2022/02/26 07:08:01;;;;;;;2.75;1.27;;;23.60;99.90;;;;;;5029524;28;20025;-74
2022/02/26 07:10:29;;;;;;;1.17;0.35;;;23.40;99.90;;;;;;5024022;28;20104;-75
2022/02/26 07:12:56;;;;;;;3.25;0.40;;;23.40;99.90;;;;;;5034234;28;20029;-75
2022/02/26 07:15:24;;;;;;;3.58;2.00;;;23.30;99.90;;;;;;5034047;28;20447;-76
2022/02/26 07:17:51;;;;;;;7.15;1.27;;;23.40;99.90;;;;;;5031930;28;20030;-75
2022/02/26 07:20:18;;;;;;;1.35;0.35;;;23.40;99.90;;;;;;5033874;28;20105;-76
2022/02/26 07:22:45;;;;;;;2.33;0.50;;;23.40;99.90;;;;;;5034431;28;20037;-75
2022/02/26 07:25:13;;;;;;;1.70;0.30;;;23.40;99.90;;;;;;5033788;28;20112;-75
2022/02/26 07:27:40;;;;;;;0.75;0.20;;;23.40;99.90;;;;;;5034976;28;20053;-76
2022/02/26 07:30:08;;;;;;;1.23;0.70;;;23.40;99.90;;;;;;5039356;28;20014;-76
2022/02/26 07:32:35;;;;;;;0.50;0.28;;;23.40;99.90;;;;;;5034697;28;20448;-78
2022/02/26 07:35:04;;;;;;;3.60;0.80;;;23.40;99.90;;;;;;5037619;28;20048;-77
2022/02/26 07:37:35;;;;;;;4.28;1.50;;;23.50;99.90;;;;;;5036594;28;20030;-75
2022/02/26 07:40:04;;;;;;;3.58;0.90;;;23.50;99.90;;;;;;5036176;28;20025;-77
2022/02/26 07:42:32;;;;;;;3.15;0.60;;;23.50;99.90;;;;;;5034429;28;20392;-76
2022/02/26 07:44:59;;;;;;;2.15;0.60;;;23.50;99.90;;;;;;5035052;28;20031;-76
2022/02/26 07:47:26;;;;;;;2.22;0.50;;;23.40;99.90;;;;;;5035021;28;20040;-75
2022/02/26 07:49:54;;;;;;;3.38;0.60;;;23.30;99.90;;;;;;5037250;28;20029;-76
2022/02/26 07:52:21;;;;;;;3.05;0.75;;;23.20;99.90;;;;;;5033790;28;20444;-75
2022/02/26 07:54:51;;;;;;;3.08;0.40;;;23.20;99.90;;;;;;5035086;28;20060;-75
2022/02/26 07:57:19;;;;;;;3.78;0.63;;;23.30;99.90;;;;;;5032209;28;20072;-76
2022/02/26 07:59:46;;;;;;;4.20;0.50;;;23.20;99.90;;;;;;5034973;28;20440;-74
2022/02/26 08:02:14;;;;;;;3.17;0.55;;;23.30;99.90;;;;;;5035733;28;20037;-74
2022/02/26 08:04:42;;;;;;;3.67;1.02;;;23.20;99.90;;;;;;5036647;28;20026;-76
2022/02/26 08:07:12;;;;;;;1.70;0.77;;;23.20;99.90;;;;;;5036438;28;20024;-75
2022/02/26 08:09:39;;;;;;;3.60;1.00;;;23.20;99.90;;;;;;5036248;28;20060;-75
2022/02/26 08:12:07;;;;;;;1.30;0.40;;;23.20;99.90;;;;;;5035556;28;20116;-75
2022/02/26 08:14:34;;;;;;;9.05;0.57;;;23.10;99.90;;;;;;5036326;28;20025;-75
2022/02/26 08:17:01;;;;;;;2.63;0.70;;;23.10;99.90;;;;;;5030312;28;20363;-76
2022/02/26 08:19:29;;;;;;;1.30;0.45;;;23.10;99.90;;;;;;5024904;28;20029;-76
2022/02/26 08:21:56;;;;;;;3.00;0.85;;;23.10;99.90;;;;;;5023044;28;20151;-74
2022/02/26 08:24:23;;;;;;;4.38;0.75;;;22.90;99.90;;;;;;5030355;28;20029;-76
2022/02/26 08:26:51;;;;;;;2.58;0.55;;;22.80;99.90;;;;;;5032210;28;20022;-76
2022/02/26 08:29:18;;;;;;;1.85;0.82;;;22.60;99.90;;;;;;5033097;28;20084;-74
2022/02/26 08:31:46;;;;;;;4.65;0.60;;;22.50;99.90;;;;;;5032692;28;20129;-77
2022/02/26 08:34:13;;;;;;;5.55;1.38;;;22.40;99.90;;;;;;5031534;28;20630;-75
2022/02/26 08:36:42;;;;;;;4.10;0.95;;;22.30;99.90;;;;;;5031832;28;20503;-74
2022/02/26 08:39:10;;;;;;;2.50;0.65;;;22.30;99.90;;;;;;5033193;28;20048;-73
2022/02/26 08:41:37;;;;;;;2.10;0.50;;;22.20;99.90;;;;;;5031710;28;20029;-73
2022/02/26 08:44:05;;;;;;;4.75;0.57;;;22.20;99.90;;;;;;5032919;28;20029;-73
2022/02/26 08:46:32;;;;;;;3.70;0.93;;;22.20;99.90;;;;;;5029035;28;20047;-73
2022/02/26 08:49:00;;;;;;;2.70;0.70;;;22.10;99.90;;;;;;5023343;28;20038;-75
2022/02/26 08:51:30;;;;;;;5.95;1.52;;;22.10;99.90;;;;;;5030635;28;20472;-75
2022/02/26 08:53:57;;;;;;;3.03;0.50;;;22.10;99.90;;;;;;5031107;28;20029;-74
2022/02/26 08:56:24;;;;;;;1.88;1.05;;;22.00;99.90;;;;;;5031217;28;20033;-73
2022/02/26 08:58:54;;;;;;;4.95;0.75;;;22.10;99.90;;;;;;5027927;28;20028;-73
2022/02/26 09:01:22;;;;;;;3.47;0.93;;;22.10;99.90;;;;;;5019182;28;20492;-74
2022/02/26 09:03:49;;;;;;;2.80;1.35;;;22.00;99.90;;;;;;5031603;28;20529;-73
2022/02/26 09:06:18;;;;;;;2.53;1.05;;;22.10;99.90;;;;;;5019673;28;20040;-74
2022/02/26 09:08:45;;;;;;;3.63;1.00;;;22.10;99.90;;;;;;5032771;28;20029;-75
2022/02/26 09:11:12;;;;;;;2.83;1.13;;;22.10;99.90;;;;;;5030182;28;20048;-73
2022/02/26 09:13:42;;;;;;;4.65;0.90;;;22.10;99.90;;;;;;5033311;28;20052;-74
2022/02/26 09:16:11;;;;;;;4.22;1.00;;;22.10;99.90;;;;;;5030660;28;20059;-73
2022/02/26 09:18:38;;;;;;;2.55;1.08;;;22.10;99.90;;;;;;5031570;28;20090;-74
2022/02/26 09:21:06;;;;;;;2.58;0.75;;;22.00;99.90;;;;;;5031706;28;20041;-74
2022/02/26 09:23:34;;;;;;;4.82;0.70;;;22.10;99.90;;;;;;5032383;28;20351;-72
2022/02/26 09:26:05;;;;;;;3.65;0.70;;;22.00;99.90;;;;;;5033312;28;20060;-74
2022/02/26 09:28:34;;;;;;;6.68;1.08;;;22.00;99.90;;;;;;5034159;28;20722;-73
2022/02/26 09:31:03;;;;;;;4.13;0.90;;;22.00;99.90;;;;;;5032109;28;20033;-73
2022/02/26 09:33:30;;;;;;;5.97;0.80;;;22.00;99.90;;;;;;5026759;28;20475;-72
2022/02/26 09:36:01;;;;;;;2.45;0.70;;;22.00;99.90;;;;;;5021527;28;20031;-73
2022/02/26 09:38:29;;;;;;;1.58;0.65;;;22.00;99.90;;;;;;5030721;28;20022;-74
2022/02/26 09:41:00;;;;;;;4.43;0.98;;;22.00;99.90;;;;;;5029994;28;20080;-73
2022/02/26 09:43:28;;;;;;;6.50;1.38;;;22.10;99.90;;;;;;5021508;28;20156;-72
2022/02/26 09:45:56;;;;;;;4.32;1.70;;;22.10;99.90;;;;;;5030873;28;20063;-73
2022/02/26 09:48:25;;;;;;;3.88;1.23;;;22.00;99.90;;;;;;5028556;28;20083;-73
2022/02/26 09:50:53;;;;;;;2.20;0.80;;;22.00;99.90;;;;;;5031658;28;20137;-72
2022/02/26 09:53:21;;;;;;;4.40;0.80;;;22.10;99.90;;;;;;5025365;28;20072;-74
2022/02/26 09:55:50;;;;;;;4.13;0.70;;;22.10;99.90;;;;;;5020862;28;20025;-74
2022/02/26 09:58:18;;;;;;;7.13;0.95;;;22.00;99.90;;;;;;5027820;28;20080;-73
2022/02/26 10:00:47;;;;;;;2.33;0.45;;;22.00;99.90;;;;;;5024674;28;20048;-74
2022/02/26 10:03:37;;;;;;;3.60;1.00;;;22.00;99.90;;;;;;5029484;28;20048;-73
2022/02/26 10:06:17;;;;;;;5.38;0.82;;;22.00;99.90;;;;;;5029967;28;20030;-74
2022/02/26 10:08:52;;;;;;;3.45;1.02;;;22.10;99.90;;;;;;5011276;28;20057;-71
2022/02/26 10:11:27;;;;;;;3.55;0.90;;;22.20;99.90;;;;;;5026862;28;20041;-73
2022/02/26 10:14:12;;;;;;;3.85;1.30;;;22.00;99.90;;;;;;5030442;28;20495;-71
2022/02/26 10:16:54;;;;;;;2.60;0.97;;;21.70;99.90;;;;;;5014960;28;20040;-73
2022/02/26 10:19:36;;;;;;;2.85;0.50;;;21.50;99.90;;;;;;5029542;28;20290;-75
2022/02/26 10:22:06;;;;;;;2.17;1.10;;;21.30;99.90;;;;;;5029133;28;20025;-73
2022/02/26 10:24:35;;;;;;;3.03;0.40;;;21.20;99.90;;;;;;5027525;28;20041;-74
2022/02/26 10:27:12;;;;;;;1.50;0.93;;;21.20;99.90;;;;;;5029236;28;20026;-74
2022/02/26 10:29:39;;;;;;;1.00;0.20;;;21.10;99.90;;;;;;5029681;28;20037;-75
2022/02/26 10:32:11;;;;;;;0.82;0.20;;;21.00;99.90;;;;;;5020464;28;20046;-74
2022/02/26 10:34:41;;;;;;;1.92;0.43;;;20.90;99.90;;;;;;5019376;28;20053;-73
2022/02/26 10:37:16;;;;;;;2.03;0.38;;;20.80;99.90;;;;;;5024632;28;20021;-74
2022/02/26 10:39:51;;;;;;;3.03;0.40;;;20.70;99.90;;;;;;5024848;28;20037;-76
2022/02/26 10:42:29;;;;;;;0.60;0.47;;;20.70;99.90;;;;;;5026069;28;20083;-77
2022/02/26 10:45:14;;;;;;;2.25;0.50;;;20.60;99.90;;;;;;5010439;28;20025;-75
2022/02/26 10:47:45;;;;;;;1.55;0.68;;;20.60;99.90;;;;;;5026760;28;20034;-73
2022/02/26 10:50:20;;;;;;;1.13;0.68;;;20.60;99.90;;;;;;5028907;28;20056;-74
2022/02/26 10:53:07;;;;;;;2.53;0.50;;;20.50;99.90;;;;;;5022898;28;20099;-73
2022/02/26 10:56:07;;;;;;;2.05;0.60;;;20.50;99.90;;;;;;5030094;28;20021;-75
2022/02/26 10:58:34;;;;;;;1.15;0.55;;;20.50;99.90;;;;;;5002615;28;20433;-79
2022/02/26 11:01:04;;;;;;;1.55;0.55;;;20.40;99.90;;;;;;5028343;28;20041;-76
2022/02/26 11:03:34;;;;;;;2.25;0.40;;;20.40;99.90;;;;;;5033392;28;20120;-75
2022/02/26 11:06:02;;;;;;;2.40;0.43;;;20.40;99.90;;;;;;5034276;28;20025;-78
2022/02/26 11:08:31;;;;;;;4.95;2.03;;;20.40;99.90;;;;;;5031971;28;20503;-77
2022/02/26 11:10:59;;;;;;;4.05;2.17;;;20.40;99.90;;;;;;5026309;28;20434;-75
2022/02/26 11:13:27;;;;;;;1.65;0.88;;;20.40;99.90;;;;;;5031514;28;20547;-79
2022/02/26 11:15:57;;;;;;;4.50;1.20;;;20.40;99.90;;;;;;5024199;28;20125;-72
2022/02/26 11:18:41;;;;;;;3.72;1.10;;;20.40;99.90;;;;;;5031553;28;20532;-75
2022/02/26 11:21:19;;;;;;;3.45;1.85;;;20.40;99.90;;;;;;5031861;28;20427;-76
2022/02/26 11:23:49;;;;;;;4.82;3.10;;;20.40;99.90;;;;;;5012797;28;20028;-72
2022/02/26 11:26:20;;;;;;;5.00;1.95;;;20.50;99.90;;;;;;5021583;28;20029;-72
2022/02/26 11:28:54;;;;;;;5.20;2.38;;;20.40;99.90;;;;;;5014449;28;20069;-75
2022/02/26 11:31:34;;;;;;;2.25;1.63;;;20.40;99.90;;;;;;5029171;28;20087;-78
2022/02/26 11:38:03;;;;;;;6.78;3.78;;;20.40;99.90;;;;;;5021542;28;20175;-73
2022/02/26 11:40:31;;;;;;;2.20;0.93;;;20.40;99.90;;;;;;5019795;28;20384;-74
2022/02/26 11:42:59;;;;;;;3.83;1.55;;;20.30;99.90;;;;;;5023270;28;20491;-74
2022/02/26 11:45:32;;;;;;;4.63;1.67;;;20.30;99.90;;;;;;5030516;28;20127;-76
2022/02/26 11:48:02;;;;;;;3.42;1.48;;;20.30;99.90;;;;;;5028667;28;20639;-73
2022/02/26 11:50:33;;;;;;;2.75;1.67;;;20.20;99.90;;;;;;5017387;28;20128;-74
2022/02/26 11:53:09;;;;;;;3.38;1.00;;;20.20;99.90;;;;;;5032235;28;20095;-72
2022/02/26 11:55:55;;;;;;;2.38;1.17;;;20.20;99.90;;;;;;5033056;28;20036;-75
2022/02/26 11:58:26;;;;;;;1.80;0.40;;;20.20;99.90;;;;;;5014785;28;20034;-72
2022/02/26 12:01:06;;;;;;;0.80;0.50;;;20.20;99.90;;;;;;5030690;28;20113;-72
2022/02/26 12:03:45;;;;;;;1.25;0.55;;;20.20;99.90;;;;;;5032126;28;20494;-74
2022/02/26 12:06:12;;;;;;;2.30;0.82;;;20.20;99.90;;;;;;5027708;28;20037;-73
2022/02/26 12:08:44;;;;;;;3.17;0.50;;;20.30;99.90;;;;;;5032666;28;20047;-74
2022/02/26 12:11:25;;;;;;;0.95;0.40;;;20.30;99.90;;;;;;5028756;28;20029;-73
2022/02/26 12:13:56;;;;;;;3.00;0.77;;;20.30;99.90;;;;;;5019036;28;20091;-77
2022/02/26 12:16:25;;;;;;;4.00;0.70;;;20.20;99.90;;;;;;5021497;28;20025;-77
2022/02/26 12:18:57;;;;;;;1.73;1.23;;;20.20;99.90;;;;;;5012456;28;20053;-76
2022/02/26 12:21:30;;;;;;;4.95;1.83;;;20.20;99.90;;;;;;5016793;28;20452;-74
2022/02/26 12:24:05;;;;;;;3.20;1.85;;;20.20;99.90;;;;;;5025824;28;20044;-75
2022/02/26 12:27:06;;;;;;;4.03;2.03;;;20.20;99.90;;;;;;5030294;28;20037;-74
2022/02/26 12:29:51;;;;;;;6.57;2.28;;;20.20;99.90;;;;;;5032256;28;20133;-73
2022/02/26 12:32:19;;;;;;;4.30;2.95;;;20.20;99.90;;;;;;5028512;28;20103;-76
2022/02/26 12:34:59;;;;;;;1.95;1.25;;;20.10;99.90;;;;;;5031752;28;20040;-74
2022/02/26 12:37:29;;;;;;;2.53;0.80;;;20.10;99.90;;;;;;5017415;28;20104;-75
2022/02/26 12:40:08;;;;;;;3.33;0.80;;;20.10;99.90;;;;;;5028179;28;20079;-77
2022/02/26 12:42:41;;;;;;;3.22;0.68;;;20.10;99.90;;;;;;5030340;28;20105;-72
2022/02/26 12:45:11;;;;;;;4.55;1.45;;;20.10;99.90;;;;;;5031182;28;20060;-72
2022/02/26 12:47:40;;;;;;;2.20;0.88;;;20.10;99.90;;;;;;5030554;28;20040;-72
2022/02/26 12:50:11;;;;;;;4.22;0.63;;;20.10;99.90;;;;;;5030547;28;20026;-74
2022/02/26 12:52:40;;;;;;;1.73;0.77;;;20.10;99.90;;;;;;5024606;28;20033;-72
2022/02/26 12:55:15;;;;;;;3.97;0.70;;;20.10;99.90;;;;;;5027219;28;20440;-73
2022/02/26 12:57:47;;;;;;;2.93;0.90;;;20.10;99.90;;;;;;5019624;28;20034;-73
2022/02/26 13:00:25;;;;;;;3.58;0.73;;;20.00;99.90;;;;;;5027215;28;20091;-72
2022/02/26 13:02:58;;;;;;;3.75;1.20;;;20.10;99.90;;;;;;5020796;28;20037;-73
2022/02/26 13:05:31;;;;;;;2.70;0.57;;;20.00;99.90;;;;;;5025157;28;20103;-73